Time,TemperatureF,DewpointF,PressureIn,WindDirection,WindDirectionDegrees,WindSpeedMPH,WindSpeedGustMPH,Humidity,HourlyPrecipIn,Conditions,Clouds,dailyrainin,SoftwareType,DateUTC
2013-01-01 00:01:00,35.2,33.9,30.08,SE,137,0.0,0.0,95,0.00,,,0.27,Wunderground v.1.15,2013-01-01 06:01:00,
2013-01-01 00:10:00,35.2,33.9,30.08,SE,137,0.0,0.0,95,0.00,,,0.00,Wunderground v.1.15,2013-01-01 06:10:00,
2013-01-01 00:15:00,35.2,33.9,30.09,SE,137,0.0,0.0,95,0.00,,,0.00,Wunderground v.1.15,2013-01-01 06:15:00,
2013-01-01 00:20:00,35.2,33.9,30.09,SE,137,0.0,1.0,95,0.00,,,0.00,Wunderground v.1.15,2013-01-01 06:20:00,
2013-01-01 00:25:00,35.2,33.9,30.09,SE,137,0.0,1.0,95,0.00,,,0.00,Wunderground v.1.15,2013-01-01 06:25:00,
2013-01-01 00:30:00,35.2,33.9,30.09,SE,137,0.0,2.0,95,0.00,,,0.00,Wunderground v.1.15,2013-01-01 06:30:00,
2013-01-01 00:35:00,35.2,33.9,30.09,North,349,1.0,1.0,95,0.00,,,0.00,Wunderground v.1.15,2013-01-01 06:35:00,
2013-01-01 00:40:00,35.2,33.9,30.09,North,351,1.0,2.0,95,0.00,,,0.01,Wunderground v.1.15,2013-01-01 06:40:00,
2013-01-01 00:50:00,35.0,33.7,30.09,North,351,1.0,3.0,95,0.00,,,0.01,Wunderground v.1.15,2013-01-01 06:50:00,
2013-01-01 00:55:00,35.0,33.7,30.09,NNE,17,1.0,1.0,95,0.00,,,0.01,Wunderground v.1.15,2013-01-01 06:55:00,
2013-01-01 01:00:00,35.0,33.7,30.10,NNE,17,1.0,1.0,95,0.00,,,0.01,Wunderground v.1.15,2013-01-01 07:00:00,
2013-01-01 01:05:00,35.0,33.7,30.10,NNE,17,1.0,1.0,95,0.00,,,0.01,Wunderground v.1.15,2013-01-01 07:05:00,
2013-01-01 01:10:00,35.0,33.7,30.10,North,360,1.0,3.0,95,0.00,,,0.01,Wunderground v.1.15,2013-01-01 07:10:00,
2013-01-01 01:15:00,35.0,33.7,30.09,North,360,2.0,3.0,95,0.00,,,0.01,Wunderground v.1.15,2013-01-01 07:15:00,
2013-01-01 01:25:00,34.6,33.3,30.09,North,355,3.0,5.0,95,0.00,,,0.01,Wunderground v.1.15,2013-01-01 07:25:00,
2013-01-01 01:30:00,34.4,33.1,30.09,NNE,13,4.0,4.0,95,0.00,,,0.01,Wunderground v.1.15,2013-01-01 07:30:00,
2013-01-01 01:35:00,34.4,33.1,30.09,North,9,3.0,4.0,95,0.00,,,0.01,Wunderground v.1.15,2013-01-01 07:35:00,
2013-01-01 01:40:00,34.3,33.0,30.09,North,11,2.0,5.0,95,0.00,,,0.01,Wunderground v.1.15,2013-01-01 07:40:00,
2013-01-01 01:45:00,34.1,32.8,30.09,North,360,3.0,5.0,95,0.00,,,0.01,Wunderground v.1.15,2013-01-01 07:45:00,
2013-01-01 01:50:00,34.1,32.8,30.09,NNE,24,3.0,4.0,95,0.00,,,0.01,Wunderground v.1.15,2013-01-01 07:50:00,
2013-01-01 01:55:00,34.0,32.7,30.09,NE,35,3.0,5.0,95,0.00,,,0.01,Wunderground v.1.15,2013-01-01 07:55:00,
2013-01-01 02:00:00,33.8,32.5,30.08,NE,34,4.0,4.0,95,0.00,,,0.01,Wunderground v.1.15,2013-01-01 08:00:00,
2013-01-01 02:05:00,33.8,32.5,30.08,NNE,30,4.0,4.0,95,0.00,,,0.01,Wunderground v.1.15,2013-01-01 08:05:00,
2013-01-01 02:11:00,33.7,32.4,30.08,NNE,30,4.0,4.0,95,0.00,,,0.01,Wunderground v.1.15,2013-01-01 08:11:00,
2013-01-01 02:20:00,33.7,32.4,30.08,NNE,33,4.0,7.0,95,0.00,,,0.01,Wunderground v.1.15,2013-01-01 08:20:00,
2013-01-01 02:25:00,33.7,32.4,30.08,NNE,33,5.0,7.0,95,0.00,,,0.01,Wunderground v.1.15,2013-01-01 08:25:00,
2013-01-01 02:30:00,33.7,32.4,30.09,NE,34,4.0,7.0,95,0.00,,,0.01,Wunderground v.1.15,2013-01-01 08:30:00,
2013-01-01 02:35:00,33.7,32.4,30.09,NNW,327,4.0,4.0,95,0.00,,,0.01,Wunderground v.1.15,2013-01-01 08:35:00,
2013-01-01 02:40:00,33.5,32.2,30.09,NNE,25,4.0,5.0,95,0.00,,,0.01,Wunderground v.1.15,2013-01-01 08:40:00,
2013-01-01 02:45:00,33.5,32.2,30.10,North,5,4.0,4.0,95,0.00,,,0.01,Wunderground v.1.15,2013-01-01 08:45:00,
2013-01-01 02:55:00,33.5,32.2,30.10,NNE,15,3.0,4.0,95,0.00,,,0.01,Wunderground v.1.15,2013-01-01 08:55:00,
2013-01-01 03:00:00,33.5,32.2,30.11,NNE,32,3.0,3.0,95,0.00,,,0.01,Wunderground v.1.15,2013-01-01 09:00:00,
2013-01-01 03:05:00,33.5,32.2,30.11,NNE,23,2.0,3.0,95,0.00,,,0.01,Wunderground v.1.15,2013-01-01 09:05:00,
2013-01-01 03:10:00,33.4,32.1,30.11,North,349,3.0,4.0,95,0.00,,,0.01,Wunderground v.1.15,2013-01-01 09:10:00,
2013-01-01 03:15:00,33.4,32.1,30.10,North,355,4.0,4.0,95,0.00,,,0.01,Wunderground v.1.15,2013-01-01 09:15:00,
2013-01-01 03:20:00,33.4,32.1,30.10,NNE,20,3.0,3.0,95,0.00,,,0.01,Wunderground v.1.15,2013-01-01 09:20:00,
2013-01-01 03:25:00,33.2,31.9,30.10,NE,35,3.0,3.0,95,0.00,,,0.01,Wunderground v.1.15,2013-01-01 09:25:00,
2013-01-01 03:31:00,33.2,31.9,30.09,NNE,17,3.0,3.0,95,0.00,,,0.01,Wunderground v.1.15,2013-01-01 09:31:00,
2013-01-01 03:40:00,33.1,31.8,30.09,NE,41,3.0,5.0,95,0.00,,,0.01,Wunderground v.1.15,2013-01-01 09:40:00,
2013-01-01 03:45:00,33.1,31.8,30.08,North,360,4.0,4.0,95,0.00,,,0.01,Wunderground v.1.15,2013-01-01 09:45:00,
2013-01-01 03:50:00,33.1,31.8,30.08,NNE,14,3.0,4.0,95,0.00,,,0.01,Wunderground v.1.15,2013-01-01 09:50:00,
2013-01-01 03:55:00,32.9,31.6,30.08,NE,44,3.0,3.0,95,0.00,,,0.01,Wunderground v.1.15,2013-01-01 09:55:00,
2013-01-01 04:00:00,32.9,31.6,30.09,North,360,2.0,2.0,95,0.00,,,0.01,Wunderground v.1.15,2013-01-01 10:00:00,
2013-01-01 04:05:00,33.1,31.8,30.09,NE,47,1.0,3.0,95,0.00,,,0.01,Wunderground v.1.15,2013-01-01 10:05:00,
2013-01-01 04:10:00,33.1,31.8,30.09,North,5,1.0,1.0,95,0.00,,,0.01,Wunderground v.1.15,2013-01-01 10:10:00,
2013-01-01 04:15:00,32.9,31.6,30.09,NNE,28,1.0,3.0,95,0.00,,,0.01,Wunderground v.1.15,2013-01-01 10:15:00,
2013-01-01 04:20:00,32.9,31.6,30.09,NNE,20,3.0,4.0,95,0.00,,,0.01,Wunderground v.1.15,2013-01-01 10:20:00,
2013-01-01 04:25:00,32.9,31.6,30.09,NE,40,3.0,4.0,95,0.00,,,0.01,Wunderground v.1.15,2013-01-01 10:25:00,
2013-01-01 04:31:00,32.9,31.6,30.09,North,360,1.0,3.0,95,0.00,,,0.01,Wunderground v.1.15,2013-01-01 10:31:00,
2013-01-01 04:40:00,32.8,31.5,30.09,NNE,30,3.0,3.0,95,0.00,,,0.01,Wunderground v.1.15,2013-01-01 10:40:00,
2013-01-01 04:45:00,32.8,31.5,30.09,NNE,27,2.0,2.0,95,0.00,,,0.01,Wunderground v.1.15,2013-01-01 10:45:00,
2013-01-01 04:50:00,32.8,31.5,30.09,NE,41,3.0,3.0,95,0.00,,,0.01,Wunderground v.1.15,2013-01-01 10:50:00,
2013-01-01 04:56:00,32.8,31.5,30.09,NNE,26,2.0,4.0,95,0.00,,,0.01,Wunderground v.1.15,2013-01-01 10:56:00,
2013-01-01 05:05:00,32.7,31.4,30.11,NE,42,3.0,5.0,95,0.00,,,0.01,Wunderground v.1.15,2013-01-01 11:05:00,
2013-01-01 05:10:00,32.7,31.4,30.11,North,355,3.0,3.0,95,0.00,,,0.01,Wunderground v.1.15,2013-01-01 11:10:00,
2013-01-01 05:16:00,32.7,31.4,30.12,NE,36,4.0,4.0,95,0.00,,,0.01,Wunderground v.1.15,2013-01-01 11:16:00,
2013-01-01 05:25:00,32.7,31.4,30.12,North,5,3.0,3.0,95,0.00,,,0.01,Wunderground v.1.15,2013-01-01 11:25:00,
2013-01-01 05:30:00,32.7,31.4,30.13,NNE,26,3.0,3.0,95,0.00,,,0.01,Wunderground v.1.15,2013-01-01 11:30:00,
2013-01-01 05:35:00,32.7,31.4,30.13,NNE,24,3.0,3.0,95,0.00,,,0.01,Wunderground v.1.15,2013-01-01 11:35:00,
2013-01-01 05:40:00,32.7,31.4,30.13,NE,36,3.0,3.0,95,0.00,,,0.01,Wunderground v.1.15,2013-01-01 11:40:00,
2013-01-01 05:45:00,32.7,31.4,30.13,NNE,27,3.0,3.0,95,0.00,,,0.01,Wunderground v.1.15,2013-01-01 11:45:00,
2013-01-01 05:50:00,32.5,31.2,30.13,NNE,12,3.0,3.0,95,0.00,,,0.01,Wunderground v.1.15,2013-01-01 11:50:00,
2013-01-01 05:55:00,32.5,31.2,30.13,NE,46,3.0,3.0,95,0.00,,,0.01,Wunderground v.1.15,2013-01-01 11:55:00,
2013-01-01 06:01:00,32.5,31.2,30.15,NNE,13,3.0,4.0,95,0.00,,,0.01,Wunderground v.1.15,2013-01-01 12:01:00,
2013-01-01 06:11:00,32.7,31.4,30.15,NNE,13,1.0,4.0,95,0.00,,,0.01,Wunderground v.1.15,2013-01-01 12:11:00,
2013-01-01 06:26:00,32.5,31.2,30.16,NNE,26,2.0,2.0,95,0.00,,,0.01,Wunderground v.1.15,2013-01-01 12:26:00,
2013-01-01 06:35:00,32.4,31.1,30.15,NE,38,4.0,6.0,95,0.00,,,0.01,Wunderground v.1.15,2013-01-01 12:35:00,
2013-01-01 06:40:00,32.4,31.1,30.15,NNE,24,3.0,5.0,95,0.00,,,0.01,Wunderground v.1.15,2013-01-01 12:40:00,
2013-01-01 06:45:00,32.2,30.9,30.15,North,5,3.0,5.0,95,0.00,,,0.01,Wunderground v.1.15,2013-01-01 12:45:00,
2013-01-01 06:50:00,32.1,30.8,30.15,NNW,346,4.0,4.0,95,0.00,,,0.01,Wunderground v.1.15,2013-01-01 12:50:00,
2013-01-01 06:55:00,32.1,30.8,30.15,North,355,4.0,4.0,95,0.00,,,0.01,Wunderground v.1.15,2013-01-01 12:55:00,
2013-01-01 07:01:00,32.1,30.8,30.18,NE,49,4.0,4.0,95,0.00,,,0.01,Wunderground v.1.15,2013-01-01 13:01:00,
2013-01-01 07:10:00,31.9,30.6,30.18,NNE,28,4.0,5.0,95,0.00,,,0.01,Wunderground v.1.15,2013-01-01 13:10:00,
2013-01-01 07:20:00,31.8,30.5,30.18,North,360,4.0,9.0,95,0.00,,,0.01,Wunderground v.1.15,2013-01-01 13:20:00,
2013-01-01 07:25:00,31.6,30.3,30.18,NNE,31,4.0,4.0,95,0.00,,,0.01,Wunderground v.1.15,2013-01-01 13:25:00,
2013-01-01 07:30:00,31.5,30.2,30.18,North,355,4.0,4.0,95,0.00,,,0.01,Wunderground v.1.15,2013-01-01 13:30:00,
2013-01-01 07:35:00,31.3,30.0,30.18,NNW,328,4.0,4.0,95,0.00,,,0.01,Wunderground v.1.15,2013-01-01 13:35:00,
2013-01-01 07:40:00,31.3,30.0,30.18,North,355,4.0,4.0,95,0.00,,,0.01,Wunderground v.1.15,2013-01-01 13:40:00,
2013-01-01 07:45:00,31.2,29.9,30.19,North,11,3.0,3.0,95,0.00,,,0.01,Wunderground v.1.15,2013-01-01 13:45:00,
2013-01-01 07:51:00,31.0,29.7,30.19,NE,34,3.0,3.0,95,0.00,,,0.01,Wunderground v.1.15,2013-01-01 13:51:00,
2013-01-01 08:00:00,30.9,29.6,30.18,North,5,3.0,5.0,95,0.00,,,0.01,Wunderground v.1.15,2013-01-01 14:00:00,
2013-01-01 08:05:00,30.7,29.4,30.18,NNE,17,4.0,6.0,95,0.00,,,0.01,Wunderground v.1.15,2013-01-01 14:05:00,
2013-01-01 08:10:00,30.7,29.4,30.18,North,5,4.0,5.0,95,0.00,,,0.01,Wunderground v.1.15,2013-01-01 14:10:00,
2013-01-01 08:15:00,30.7,29.4,30.17,NNE,18,4.0,5.0,95,0.00,,,0.01,Wunderground v.1.15,2013-01-01 14:15:00,
2013-01-01 08:20:00,30.6,29.3,30.17,NNE,14,5.0,5.0,95,0.00,,,0.01,Wunderground v.1.15,2013-01-01 14:20:00,
2013-01-01 08:26:00,30.4,29.1,30.17,NE,46,4.0,5.0,95,0.00,,,0.01,Wunderground v.1.15,2013-01-01 14:26:00,
2013-01-01 08:35:00,30.3,29.0,30.17,North,360,4.0,4.0,95,0.00,,,0.01,Wunderground v.1.15,2013-01-01 14:35:00,
2013-01-01 08:40:00,30.3,29.0,30.17,North,5,4.0,4.0,95,0.00,,,0.01,Wunderground v.1.15,2013-01-01 14:40:00,
2013-01-01 08:45:00,30.3,29.0,30.18,North,350,4.0,4.0,95,0.00,,,0.01,Wunderground v.1.15,2013-01-01 14:45:00,
2013-01-01 08:50:00,30.3,29.0,30.18,NE,38,3.0,4.0,95,0.00,,,0.01,Wunderground v.1.15,2013-01-01 14:50:00,
2013-01-01 08:55:00,30.3,29.0,30.18,North,5,3.0,4.0,95,0.00,,,0.01,Wunderground v.1.15,2013-01-01 14:55:00,
2013-01-01 09:05:00,30.1,28.8,30.19,NNW,347,3.0,6.0,95,0.00,,,0.01,Wunderground v.1.15,2013-01-01 15:05:00,
2013-01-01 09:10:00,30.1,28.8,30.19,North,355,3.0,6.0,95,0.00,,,0.01,Wunderground v.1.15,2013-01-01 15:10:00,
2013-01-01 09:15:00,29.8,28.5,30.20,North,5,5.0,6.0,95,0.00,,,0.01,Wunderground v.1.15,2013-01-01 15:15:00,
2013-01-01 09:20:00,29.7,28.2,30.20,North,349,5.0,5.0,94,0.00,,,0.01,Wunderground v.1.15,2013-01-01 15:20:00,
2013-01-01 09:25:00,29.7,28.2,30.20,NE,39,4.0,6.0,94,0.00,,,0.01,Wunderground v.1.15,2013-01-01 15:25:00,
2013-01-01 09:30:00,29.7,28.2,30.23,NNE,19,4.0,9.0,94,0.00,,,0.01,Wunderground v.1.15,2013-01-01 15:30:00,
2013-01-01 09:36:00,29.5,28.0,30.23,North,355,5.0,9.0,94,0.00,,,0.01,Wunderground v.1.15,2013-01-01 15:36:00,
2013-01-01 09:45:00,29.3,27.8,30.23,North,360,6.0,6.0,94,0.00,,,0.01,Wunderground v.1.15,2013-01-01 15:45:00,
2013-01-01 09:50:00,29.3,27.8,30.23,North,355,6.0,6.0,94,0.00,,,0.01,Wunderground v.1.15,2013-01-01 15:50:00,
2013-01-01 09:55:00,29.1,27.6,30.23,NNE,28,6.0,6.0,94,0.00,,,0.01,Wunderground v.1.15,2013-01-01 15:55:00,
2013-01-01 10:00:00,29.1,27.6,30.23,NNE,32,6.0,6.0,94,0.00,,,0.01,Wunderground v.1.15,2013-01-01 16:00:00,
2013-01-01 10:05:00,29.1,27.6,30.23,North,9,5.0,6.0,94,0.00,,,0.01,Wunderground v.1.15,2013-01-01 16:05:00,
2013-01-01 10:11:00,29.0,27.5,30.23,North,5,5.0,5.0,94,0.00,,,0.01,Wunderground v.1.15,2013-01-01 16:11:00,
2013-01-01 10:20:00,29.0,27.5,30.23,NE,36,5.0,5.0,94,0.00,,,0.01,Wunderground v.1.15,2013-01-01 16:20:00,
2013-01-01 10:25:00,28.8,27.3,30.23,North,355,4.0,6.0,94,0.00,,,0.01,Wunderground v.1.15,2013-01-01 16:25:00,
2013-01-01 10:30:00,28.8,27.3,30.24,NE,35,3.0,6.0,94,0.00,,,0.01,Wunderground v.1.15,2013-01-01 16:30:00,
2013-01-01 10:35:00,28.8,27.3,30.24,NE,50,2.0,2.0,94,0.00,,,0.01,Wunderground v.1.15,2013-01-01 16:35:00,
2013-01-01 10:40:00,28.8,27.0,30.24,North,360,3.0,8.0,93,0.00,,,0.01,Wunderground v.1.15,2013-01-01 16:40:00,
2013-01-01 10:46:00,28.7,26.9,30.25,NNE,13,4.0,4.0,93,0.00,,,0.01,Wunderground v.1.15,2013-01-01 16:46:00,
2013-01-01 10:51:00,28.5,26.7,30.25,NNW,346,4.0,5.0,93,0.00,,,0.01,Wunderground v.1.15,2013-01-01 16:51:00,
2013-01-01 11:00:00,28.5,26.7,30.25,North,355,4.0,4.0,93,0.00,,,0.01,Wunderground v.1.15,2013-01-01 17:00:00,
2013-01-01 11:05:00,28.4,26.6,30.25,NNW,346,4.0,5.0,93,0.00,,,0.01,Wunderground v.1.15,2013-01-01 17:05:00,
2013-01-01 11:10:00,28.2,26.4,30.25,NE,35,5.0,5.0,93,0.00,,,0.01,Wunderground v.1.15,2013-01-01 17:10:00,
2013-01-01 11:15:00,28.4,26.6,30.23,North,360,4.0,6.0,93,0.00,,,0.01,Wunderground v.1.15,2013-01-01 17:15:00,
2013-01-01 11:20:00,28.2,26.2,30.23,North,360,4.0,6.0,92,0.00,,,0.01,Wunderground v.1.15,2013-01-01 17:20:00,
2013-01-01 11:26:00,28.1,26.1,30.23,North,355,6.0,6.0,92,0.00,,,0.01,Wunderground v.1.15,2013-01-01 17:26:00,
2013-01-01 11:45:00,27.9,25.9,30.23,North,5,5.0,5.0,92,0.00,,,0.01,Wunderground v.1.15,2013-01-01 17:45:00,
2013-01-01 11:50:00,27.9,25.9,30.23,NNE,22,4.0,5.0,92,0.00,,,0.01,Wunderground v.1.15,2013-01-01 17:50:00,
2013-01-01 11:56:00,28.1,25.8,30.23,NNE,24,2.0,3.0,91,0.00,,,0.01,Wunderground v.1.15,2013-01-01 17:56:00,
2013-01-01 12:05:00,27.9,25.6,30.23,NNE,24,4.0,4.0,91,0.00,,,0.01,Wunderground v.1.15,2013-01-01 18:05:00,
2013-01-01 12:10:00,27.9,25.6,30.23,North,360,5.0,5.0,91,0.00,,,0.01,Wunderground v.1.15,2013-01-01 18:10:00,
2013-01-01 12:15:00,27.9,25.3,30.22,NNE,24,4.0,5.0,90,0.00,,,0.01,Wunderground v.1.15,2013-01-01 18:15:00,
2013-01-01 12:21:00,27.9,25.3,30.22,NNW,343,3.0,5.0,90,0.00,,,0.01,Wunderground v.1.15,2013-01-01 18:21:00,
2013-01-01 12:30:00,28.1,25.5,30.22,North,5,3.0,5.0,90,0.00,,,0.01,Wunderground v.1.15,2013-01-01 18:30:00,
2013-01-01 12:35:00,28.1,25.5,30.22,North,355,4.0,4.0,90,0.00,,,0.01,Wunderground v.1.15,2013-01-01 18:35:00,
2013-01-01 12:40:00,28.2,25.4,30.22,NNW,344,4.0,4.0,89,0.00,,,0.01,Wunderground v.1.15,2013-01-01 18:40:00,
2013-01-01 12:45:00,28.2,25.4,30.22,North,11,5.0,5.0,89,0.00,,,0.01,Wunderground v.1.15,2013-01-01 18:45:00,
2013-01-01 12:51:00,28.1,25.3,30.22,NNW,346,4.0,5.0,89,0.00,,,0.01,Wunderground v.1.15,2013-01-01 18:51:00,
2013-01-01 13:00:00,28.2,25.4,30.22,North,5,3.0,7.0,89,0.00,,,0.01,Wunderground v.1.15,2013-01-01 19:00:00,
2013-01-01 13:05:00,28.2,25.1,30.22,North,351,5.0,9.0,88,0.00,,,0.01,Wunderground v.1.15,2013-01-01 19:05:00,
2013-01-01 13:10:00,28.4,25.3,30.22,North,350,5.0,5.0,88,0.00,,,0.01,Wunderground v.1.15,2013-01-01 19:10:00,
2013-01-01 13:15:00,28.5,25.4,30.22,NNE,19,4.0,5.0,88,0.00,,,0.01,Wunderground v.1.15,2013-01-01 19:15:00,
2013-01-01 13:21:00,28.5,25.4,30.22,North,10,3.0,5.0,88,0.00,,,0.01,Wunderground v.1.15,2013-01-01 19:21:00,
2013-01-01 13:30:00,28.4,25.0,30.22,North,355,4.0,5.0,87,0.00,,,0.01,Wunderground v.1.15,2013-01-01 19:30:00,
2013-01-01 13:35:00,28.4,25.0,30.22,NNE,27,4.0,4.0,87,0.00,,,0.01,Wunderground v.1.15,2013-01-01 19:35:00,
2013-01-01 13:40:00,28.4,25.0,30.22,NNE,24,3.0,5.0,87,0.00,,,0.01,Wunderground v.1.15,2013-01-01 19:40:00,
2013-01-01 13:45:00,28.2,24.8,30.22,North,355,5.0,5.0,87,0.00,,,0.01,Wunderground v.1.15,2013-01-01 19:45:00,
2013-01-01 13:51:00,28.2,24.8,30.22,North,360,5.0,5.0,87,0.00,,,0.01,Wunderground v.1.15,2013-01-01 19:51:00,
2013-01-01 14:00:00,28.2,24.8,30.22,North,9,4.0,4.0,87,0.00,,,0.01,Wunderground v.1.15,2013-01-01 20:00:00,
2013-01-01 14:05:00,28.4,25.0,30.22,NNE,14,4.0,4.0,87,0.00,,,0.01,Wunderground v.1.15,2013-01-01 20:05:00,
2013-01-01 14:10:00,28.2,24.8,30.22,North,355,4.0,4.0,87,0.00,,,0.01,Wunderground v.1.15,2013-01-01 20:10:00,
2013-01-01 14:15:00,28.2,24.6,30.22,North,360,4.0,6.0,86,0.00,,,0.01,Wunderground v.1.15,2013-01-01 20:15:00,
2013-01-01 14:20:00,28.1,24.5,30.22,North,5,4.0,5.0,86,0.00,,,0.01,Wunderground v.1.15,2013-01-01 20:20:00,
2013-01-01 14:26:00,28.1,24.5,30.22,North,349,4.0,5.0,86,0.00,,,0.01,Wunderground v.1.15,2013-01-01 20:26:00,
2013-01-01 14:35:00,28.1,24.5,30.22,North,355,4.0,5.0,86,0.00,,,0.01,Wunderground v.1.15,2013-01-01 20:35:00,
2013-01-01 14:40:00,28.1,24.5,30.22,NNW,346,5.0,6.0,86,0.00,,,0.01,Wunderground v.1.15,2013-01-01 20:40:00,
2013-01-01 14:45:00,27.9,24.0,30.23,NNW,338,5.0,9.0,85,0.00,,,0.01,Wunderground v.1.15,2013-01-01 20:45:00,
2013-01-01 14:50:00,27.8,23.9,30.23,North,350,6.0,9.0,85,0.00,,,0.01,Wunderground v.1.15,2013-01-01 20:50:00,
2013-01-01 14:55:00,27.6,23.7,30.23,NNW,343,5.0,5.0,85,0.00,,,0.01,Wunderground v.1.15,2013-01-01 20:55:00,
2013-01-01 15:00:00,27.5,23.6,30.24,NNW,348,4.0,5.0,85,0.00,,,0.01,Wunderground v.1.15,2013-01-01 21:00:00,
2013-01-01 15:05:00,27.3,23.1,30.24,NNE,30,5.0,5.0,84,0.00,,,0.01,Wunderground v.1.15,2013-01-01 21:05:00,
2013-01-01 15:11:00,27.3,23.1,30.24,NNW,331,4.0,4.0,84,0.00,,,0.01,Wunderground v.1.15,2013-01-01 21:11:00,
2013-01-01 15:20:00,27.5,23.3,30.25,North,5,3.0,4.0,84,0.00,,,0.01,Wunderground v.1.15,2013-01-01 21:20:00,
2013-01-01 15:25:00,27.3,23.1,30.25,NNW,348,3.0,3.0,84,0.00,,,0.01,Wunderground v.1.15,2013-01-01 21:25:00,
2013-01-01 15:30:00,27.3,23.1,30.25,NNW,331,3.0,6.0,84,0.00,,,0.01,Wunderground v.1.15,2013-01-01 21:30:00,
2013-01-01 15:35:00,27.2,23.0,30.25,North,5,3.0,6.0,84,0.00,,,0.01,Wunderground v.1.15,2013-01-01 21:35:00,
2013-01-01 15:41:00,27.2,23.0,30.25,NNE,31,3.0,6.0,84,0.00,,,0.01,Wunderground v.1.15,2013-01-01 21:41:00,
2013-01-01 15:50:00,27.2,22.7,30.25,NNW,339,3.0,5.0,83,0.00,,,0.01,Wunderground v.1.15,2013-01-01 21:50:00,
2013-01-01 15:55:00,27.0,22.8,30.25,North,350,4.0,5.0,84,0.00,,,0.01,Wunderground v.1.15,2013-01-01 21:55:00,
2013-01-01 16:00:00,27.0,22.5,30.25,NNE,30,4.0,5.0,83,0.00,,,0.01,Wunderground v.1.15,2013-01-01 22:00:00,
2013-01-01 16:05:00,26.9,22.4,30.25,North,355,4.0,5.0,83,0.00,,,0.01,Wunderground v.1.15,2013-01-01 22:05:00,
2013-01-01 16:10:00,26.9,22.4,30.25,NNW,338,4.0,4.0,83,0.00,,,0.01,Wunderground v.1.15,2013-01-01 22:10:00,
2013-01-01 16:15:00,26.7,21.9,30.25,North,355,4.0,4.0,82,0.00,,,0.01,Wunderground v.1.15,2013-01-01 22:15:00,
2013-01-01 16:20:00,26.7,21.9,30.25,North,5,3.0,3.0,82,0.00,,,0.01,Wunderground v.1.15,2013-01-01 22:20:00,
2013-01-01 16:25:00,26.7,21.9,30.25,North,5,3.0,4.0,82,0.00,,,0.01,Wunderground v.1.15,2013-01-01 22:25:00,
2013-01-01 16:31:00,26.7,21.9,30.27,North,355,3.0,3.0,82,0.00,,,0.01,Wunderground v.1.15,2013-01-01 22:31:00,
2013-01-01 16:40:00,26.6,21.8,30.27,North,10,4.0,4.0,82,0.00,,,0.01,Wunderground v.1.15,2013-01-01 22:40:00,
2013-01-01 16:45:00,26.6,21.6,30.26,North,355,3.0,3.0,81,0.00,,,0.01,Wunderground v.1.15,2013-01-01 22:45:00,
2013-01-01 16:50:00,26.6,21.6,30.26,NNE,33,3.0,4.0,81,0.00,,,0.01,Wunderground v.1.15,2013-01-01 22:50:00,
2013-01-01 16:55:00,26.4,21.4,30.26,NNE,19,3.0,3.0,81,0.00,,,0.01,Wunderground v.1.15,2013-01-01 22:55:00,
2013-01-01 17:00:00,26.4,21.4,30.27,North,355,4.0,4.0,81,0.00,,,0.01,Wunderground v.1.15,2013-01-01 23:00:00,
2013-01-01 17:05:00,26.4,21.4,30.27,NNW,343,4.0,4.0,81,0.00,,,0.01,Wunderground v.1.15,2013-01-01 23:05:00,
2013-01-01 17:15:00,26.4,21.4,30.27,NNW,336,2.0,4.0,81,0.00,,,0.01,Wunderground v.1.15,2013-01-01 23:15:00,
2013-01-01 17:20:00,26.3,21.3,30.27,NNW,342,3.0,3.0,81,0.00,,,0.01,Wunderground v.1.15,2013-01-01 23:20:00,
2013-01-01 17:25:00,26.1,21.1,30.27,North,355,2.0,3.0,81,0.00,,,0.01,Wunderground v.1.15,2013-01-01 23:25:00,
2013-01-01 17:30:00,26.0,21.0,30.27,NNE,13,2.0,3.0,81,0.00,,,0.01,Wunderground v.1.15,2013-01-01 23:30:00,
2013-01-01 17:35:00,25.8,20.8,30.27,North,5,2.0,3.0,81,0.00,,,0.01,Wunderground v.1.15,2013-01-01 23:35:00,
2013-01-01 17:40:00,25.8,20.8,30.27,North,5,1.0,1.0,81,0.00,,,0.01,Wunderground v.1.15,2013-01-01 23:40:00,
2013-01-01 17:45:00,25.8,20.8,30.27,North,5,1.0,1.0,81,0.00,,,0.01,Wunderground v.1.15,2013-01-01 23:45:00,
2013-01-01 17:51:00,25.6,20.6,30.27,North,5,0.0,3.0,81,0.00,,,0.01,Wunderground v.1.15,2013-01-01 23:51:00,
2013-01-01 18:00:00,25.1,20.1,30.27,North,5,1.0,1.0,81,0.00,,,0.01,Wunderground v.1.15,2013-01-02 00:00:00,
2013-01-01 18:10:00,24.7,19.7,30.27,North,5,0.0,0.0,81,0.00,,,0.01,Wunderground v.1.15,2013-01-02 00:10:00,
2013-01-01 18:15:00,24.4,19.7,30.27,North,5,0.0,1.0,82,0.00,,,0.01,Wunderground v.1.15,2013-01-02 00:15:00,
2013-01-01 18:20:00,24.1,19.4,30.27,North,5,0.0,0.0,82,0.00,,,0.01,Wunderground v.1.15,2013-01-02 00:20:00,
2013-01-01 18:25:00,23.8,19.1,30.27,North,5,0.0,0.0,82,0.00,,,0.01,Wunderground v.1.15,2013-01-02 00:25:00,
2013-01-01 18:30:00,23.6,18.9,30.27,North,355,0.0,4.0,82,0.00,,,0.01,Wunderground v.1.15,2013-01-02 00:30:00,
2013-01-01 18:36:00,23.5,19.1,30.27,North,355,1.0,4.0,83,0.00,,,0.01,Wunderground v.1.15,2013-01-02 00:36:00,
2013-01-01 18:45:00,23.3,18.9,30.29,North,355,1.0,1.0,83,0.00,,,0.01,Wunderground v.1.15,2013-01-02 00:45:00,
2013-01-01 18:50:00,23.2,18.8,30.29,North,5,0.0,1.0,83,0.00,,,0.01,Wunderground v.1.15,2013-01-02 00:50:00,
2013-01-01 18:55:00,23.0,18.6,30.29,North,5,0.0,0.0,83,0.00,,,0.01,Wunderground v.1.15,2013-01-02 00:55:00,
2013-01-01 19:00:00,22.9,18.8,30.28,North,5,0.0,0.0,84,0.00,,,0.01,Wunderground v.1.15,2013-01-02 01:00:00,
2013-01-01 19:05:00,22.9,18.8,30.28,NNW,343,1.0,1.0,84,0.00,,,0.01,Wunderground v.1.15,2013-01-02 01:05:00,
2013-01-01 19:11:00,22.7,18.6,30.28,NNW,343,0.0,0.0,84,0.00,,,0.01,Wunderground v.1.15,2013-01-02 01:11:00,
2013-01-01 19:20:00,22.4,18.3,30.28,NNW,343,0.0,0.0,84,0.00,,,0.01,Wunderground v.1.15,2013-01-02 01:20:00,
2013-01-01 19:25:00,22.2,18.1,30.28,NNW,343,0.0,0.0,84,0.00,,,0.01,Wunderground v.1.15,2013-01-02 01:25:00,
2013-01-01 19:30:00,22.1,18.3,30.28,NNW,343,0.0,0.0,85,0.00,,,0.01,Wunderground v.1.15,2013-01-02 01:30:00,
2013-01-01 19:35:00,21.9,18.1,30.28,NNW,343,0.0,0.0,85,0.00,,,0.01,Wunderground v.1.15,2013-01-02 01:35:00,
2013-01-01 19:40:00,21.8,18.0,30.28,NNW,343,0.0,0.0,85,0.00,,,0.01,Wunderground v.1.15,2013-01-02 01:40:00,
2013-01-01 19:45:00,21.8,18.0,30.30,NNW,343,0.0,0.0,85,0.00,,,0.01,Wunderground v.1.15,2013-01-02 01:45:00,
2013-01-01 19:51:00,21.9,18.4,30.30,NNW,343,0.0,0.0,86,0.00,,,0.01,Wunderground v.1.15,2013-01-02 01:51:00,
2013-01-01 20:00:00,21.9,18.4,30.31,NNW,343,0.0,0.0,86,0.00,,,0.01,Wunderground v.1.15,2013-01-02 02:00:00,
2013-01-01 20:05:00,21.9,18.4,30.31,NNW,343,0.0,0.0,86,0.00,,,0.01,Wunderground v.1.15,2013-01-02 02:05:00,
2013-01-01 20:10:00,21.9,18.4,30.31,NNW,343,0.0,0.0,86,0.00,,,0.01,Wunderground v.1.15,2013-01-02 02:10:00,
2013-01-01 20:20:00,21.6,18.1,30.32,NNW,343,0.0,0.0,86,0.00,,,0.01,Wunderground v.1.15,2013-01-02 02:20:00,
2013-01-01 20:25:00,21.8,18.3,30.32,NNW,343,0.0,0.0,86,0.00,,,0.01,Wunderground v.1.15,2013-01-02 02:25:00,
2013-01-01 20:30:00,21.6,18.1,30.31,NNW,343,0.0,0.0,86,0.00,,,0.01,Wunderground v.1.15,2013-01-02 02:30:00,
2013-01-01 20:35:00,21.4,17.9,30.31,NNW,343,0.0,0.0,86,0.00,,,0.01,Wunderground v.1.15,2013-01-02 02:35:00,
2013-01-01 20:40:00,21.4,17.9,30.31,NNW,343,0.0,0.0,86,0.00,,,0.01,Wunderground v.1.15,2013-01-02 02:40:00,
2013-01-01 20:46:00,21.4,17.9,30.32,NNW,343,0.0,0.0,86,0.00,,,0.01,Wunderground v.1.15,2013-01-02 02:46:00,
2013-01-01 20:55:00,21.4,17.9,30.32,NNW,343,0.0,0.0,86,0.00,,,0.01,Wunderground v.1.15,2013-01-02 02:55:00,
2013-01-01 21:00:00,21.4,17.9,30.31,NNW,343,0.0,0.0,86,0.00,,,0.01,Wunderground v.1.15,2013-01-02 03:00:00,
2013-01-01 21:05:00,21.3,17.8,30.31,NNW,343,0.0,0.0,86,0.00,,,0.01,Wunderground v.1.15,2013-01-02 03:05:00,
2013-01-01 21:10:00,21.0,17.5,30.31,NNW,343,0.0,0.0,86,0.00,,,0.01,Wunderground v.1.15,2013-01-02 03:10:00,
2013-01-01 21:15:00,20.8,17.3,30.30,NNW,343,0.0,0.0,86,0.00,,,0.01,Wunderground v.1.15,2013-01-02 03:15:00,
2013-01-01 21:20:00,20.5,17.0,30.30,NNW,343,0.0,0.0,86,0.00,,,0.01,Wunderground v.1.15,2013-01-02 03:20:00,
2013-01-01 21:25:00,20.3,16.8,30.30,NNW,343,0.0,0.0,86,0.00,,,0.01,Wunderground v.1.15,2013-01-02 03:25:00,
2013-01-01 21:30:00,20.2,16.7,30.30,NNW,343,0.0,0.0,86,0.00,,,0.01,Wunderground v.1.15,2013-01-02 03:30:00,
2013-01-01 21:36:00,20.0,16.5,30.30,NNW,343,0.0,0.0,86,0.00,,,0.01,Wunderground v.1.15,2013-01-02 03:36:00,
2013-01-01 21:45:00,19.9,16.4,30.30,NNW,343,0.0,0.0,86,0.00,,,0.01,Wunderground v.1.15,2013-01-02 03:45:00,
2013-01-01 21:50:00,19.9,16.4,30.30,NNW,343,0.0,0.0,86,0.00,,,0.01,Wunderground v.1.15,2013-01-02 03:50:00,
2013-01-01 21:55:00,19.9,16.4,30.30,NNW,343,0.0,0.0,86,0.00,,,0.01,Wunderground v.1.15,2013-01-02 03:55:00,
2013-01-01 22:00:00,19.7,16.2,30.29,NNW,343,0.0,0.0,86,0.00,,,0.01,Wunderground v.1.15,2013-01-02 04:00:00,
2013-01-01 22:06:00,19.7,16.5,30.29,NNW,343,0.0,0.0,87,0.00,,,0.01,Wunderground v.1.15,2013-01-02 04:06:00,
2013-01-01 22:15:00,19.7,16.5,30.30,NNW,343,0.0,0.0,87,0.00,,,0.01,Wunderground v.1.15,2013-01-02 04:15:00,
2013-01-01 22:20:00,19.7,16.5,30.30,NNW,343,0.0,0.0,87,0.00,,,0.01,Wunderground v.1.15,2013-01-02 04:20:00,
2013-01-01 22:25:00,19.5,16.0,30.30,NNW,343,0.0,0.0,86,0.00,,,0.01,Wunderground v.1.15,2013-01-02 04:25:00,
2013-01-01 22:30:00,19.5,16.0,30.31,NNW,343,0.0,0.0,86,0.00,,,0.01,Wunderground v.1.15,2013-01-02 04:30:00,
2013-01-01 22:36:00,19.4,15.9,30.31,NNW,343,0.0,0.0,86,0.00,,,0.01,Wunderground v.1.15,2013-01-02 04:36:00,
2013-01-01 22:45:00,19.1,15.6,30.31,NNW,343,0.0,0.0,86,0.00,,,0.01,Wunderground v.1.15,2013-01-02 04:45:00,
2013-01-01 22:50:00,18.8,15.3,30.31,NNW,343,0.0,0.0,86,0.00,,,0.01,Wunderground v.1.15,2013-01-02 04:50:00,
2013-01-01 22:55:00,18.6,15.1,30.31,NNW,343,0.0,0.0,86,0.00,,,0.01,Wunderground v.1.15,2013-01-02 04:55:00,
2013-01-01 23:00:00,18.3,14.8,30.32,NNW,343,0.0,0.0,86,0.00,,,0.01,Wunderground v.1.15,2013-01-02 05:00:00,
2013-01-01 23:05:00,18.1,14.6,30.32,NNW,343,0.0,0.0,86,0.00,,,0.01,Wunderground v.1.15,2013-01-02 05:05:00,
2013-01-01 23:11:00,18.0,14.5,30.32,NNW,343,0.0,0.0,86,0.00,,,0.01,Wunderground v.1.15,2013-01-02 05:11:00,
2013-01-01 23:15:00,18.0,14.5,30.31,NNW,343,0.0,0.0,86,0.00,,,0.01,Wunderground v.1.15,2013-01-02 05:15:00,
2013-01-01 23:20:00,18.0,14.5,30.31,NNW,343,0.0,0.0,86,0.00,,,0.01,Wunderground v.1.15,2013-01-02 05:20:00,
2013-01-01 23:25:00,18.0,14.5,30.31,NNW,343,0.0,0.0,86,0.00,,,0.01,Wunderground v.1.15,2013-01-02 05:25:00,
2013-01-01 23:30:00,18.0,14.5,30.31,NNW,343,0.0,0.0,86,0.00,,,0.01,Wunderground v.1.15,2013-01-02 05:30:00,
2013-01-01 23:35:00,17.8,14.3,30.31,NNW,343,0.0,0.0,86,0.00,,,0.01,Wunderground v.1.15,2013-01-02 05:35:00,
2013-01-01 23:41:00,17.5,14.0,30.31,NNW,343,0.0,0.0,86,0.00,,,0.01,Wunderground v.1.15,2013-01-02 05:41:00,
2013-01-01 23:50:00,17.2,13.7,30.31,NNW,343,0.0,0.0,86,0.00,,,0.01,Wunderground v.1.15,2013-01-02 05:50:00,
2013-01-01 23:55:00,17.0,13.5,30.31,NNW,343,0.0,0.0,86,0.00,,,0.01,Wunderground v.1.15,2013-01-02 05:55:00,